createdAt,value
2017-11-03T00:00:36.728Z,8.10
2017-11-03T00:03:05.111Z,9.83
2017-11-03T00:05:33.439Z,8.93
2017-11-03T00:08:01.754Z,8.33
2017-11-03T00:10:31.108Z,7.90
2017-11-03T00:12:59.423Z,7.30
2017-11-03T00:15:28.496Z,6.57
2017-11-03T00:17:56.776Z,7.10
2017-11-03T00:20:25.091Z,7.10
2017-11-03T00:22:53.372Z,5.97
2017-11-03T00:25:21.656Z,7.07
2017-11-03T00:27:49.967Z,8.30
2017-11-03T00:30:19.063Z,7.47
2017-11-03T00:32:47.392Z,8.70
2017-11-03T00:35:15.713Z,8.63
2017-11-03T00:37:44.017Z,10.20
2017-11-03T00:40:12.327Z,8.73
2017-11-03T00:42:40.607Z,9.83
2017-11-03T00:45:08.934Z,10.60
2017-11-03T00:47:37.222Z,11.83
2017-11-03T00:50:05.511Z,12.53
2017-11-03T00:52:33.835Z,13.43
2017-11-03T00:55:02.126Z,13.57
2017-11-03T00:57:30.434Z,11.20
2017-11-03T00:59:58.729Z,12.37
2017-11-03T01:02:27.167Z,13.37
2017-11-03T01:04:55.459Z,11.67
2017-11-03T01:07:23.747Z,10.07
2017-11-03T01:09:52.051Z,10.93
2017-11-03T01:12:20.383Z,10.40
2017-11-03T01:14:48.676Z,10.00
2017-11-03T01:17:16.984Z,10.47
2017-11-03T01:19:46.038Z,9.80
2017-11-03T01:22:14.352Z,11.63
2017-11-03T01:24:42.751Z,8.50
2017-11-03T01:27:11.076Z,8.07
2017-11-03T01:29:39.483Z,6.57
2017-11-03T01:32:07.819Z,5.50
2017-11-03T01:34:37.331Z,5.47
2017-11-03T01:37:05.639Z,6.00
2017-11-03T01:39:33.950Z,3.53
2017-11-03T01:42:03.018Z,3.83
2017-11-03T01:44:31.351Z,4.20
2017-11-03T01:46:59.626Z,3.80
2017-11-03T01:49:28.670Z,3.10
2017-11-03T01:51:56.971Z,3.10
2017-11-03T01:54:25.275Z,2.43
2017-11-03T01:56:53.560Z,2.30
2017-11-03T01:59:21.868Z,2.70
2017-11-03T02:01:50.147Z,2.70
2017-11-03T02:04:19.654Z,2.23
2017-11-03T02:06:47.961Z,1.53
2017-11-03T02:09:16.451Z,2.13
2017-11-03T02:11:44.734Z,2.17
2017-11-03T02:14:13.021Z,1.97
2017-11-03T02:16:41.323Z,1.67
2017-11-03T02:19:09.639Z,1.80
2017-11-03T02:21:38.720Z,2.30
2017-11-03T02:24:07.002Z,2.73
2017-11-03T02:26:35.324Z,1.90
2017-11-03T02:29:04.363Z,2.47
2017-11-03T02:31:32.674Z,1.40
2017-11-03T02:34:00.954Z,2.10
2017-11-03T02:36:29.224Z,1.37
2017-11-03T02:38:57.531Z,1.90
2017-11-03T02:41:25.848Z,1.90
2017-11-03T02:43:54.335Z,2.00
2017-11-03T02:46:22.649Z,1.67
2017-11-03T02:48:50.963Z,1.70
2017-11-03T02:51:19.266Z,1.70
2017-11-03T02:53:47.544Z,1.50
2017-11-03T02:56:15.847Z,2.10
2017-11-03T02:58:44.130Z,3.30
2017-11-03T03:01:12.442Z,3.97
2017-11-03T03:03:40.719Z,3.17
2017-11-03T03:06:09.008Z,2.20
2017-11-03T03:08:37.322Z,2.00
2017-11-03T03:11:05.603Z,3.37
2017-11-03T03:13:34.012Z,3.50
2017-11-03T03:16:02.411Z,2.80
2017-11-03T03:18:31.479Z,3.60
2017-11-03T03:20:59.855Z,3.93
2017-11-03T03:23:28.136Z,3.43
2017-11-03T03:25:57.199Z,3.07
2017-11-03T03:28:25.613Z,3.13
2017-11-03T03:30:54.683Z,2.83
2017-11-03T03:33:22.969Z,3.43
2017-11-03T03:35:51.464Z,2.90
2017-11-03T03:38:19.751Z,2.87
2017-11-03T03:40:48.032Z,3.47
2017-11-03T03:43:16.337Z,3.30
2017-11-03T03:45:44.743Z,3.00
2017-11-03T03:48:13.027Z,3.43
2017-11-03T03:50:41.319Z,4.13
2017-11-03T03:53:09.619Z,2.90
2017-11-03T03:55:37.976Z,2.37
2017-11-03T03:58:06.256Z,3.57
2017-11-03T04:00:34.536Z,3.10
2017-11-03T04:03:02.866Z,2.90
2017-11-03T04:05:31.187Z,3.30
2017-11-03T04:08:00.273Z,3.33
2017-11-03T04:10:28.554Z,5.40
2017-11-03T04:12:56.839Z,4.03
2017-11-03T04:15:25.343Z,3.80
2017-11-03T04:17:53.696Z,4.97
2017-11-03T04:20:21.972Z,3.10
2017-11-03T04:22:50.303Z,3.80
2017-11-03T04:25:18.602Z,3.77
2017-11-03T04:27:46.915Z,3.70
2017-11-03T04:30:15.963Z,3.70
2017-11-03T04:32:44.266Z,3.57
2017-11-03T04:35:12.538Z,4.00
2017-11-03T04:37:40.853Z,3.30
2017-11-03T04:40:09.242Z,4.93
2017-11-03T04:42:37.531Z,3.97
2017-11-03T04:45:05.847Z,4.50
2017-11-03T04:47:34.127Z,4.27
2017-11-03T04:50:02.398Z,4.40
2017-11-03T04:52:30.794Z,4.27
2017-11-03T04:54:59.187Z,3.53
2017-11-03T04:57:27.575Z,3.47
2017-11-03T04:59:55.906Z,4.87
2017-11-03T05:02:24.951Z,4.53
2017-11-03T05:04:53.234Z,3.60
2017-11-03T05:07:21.535Z,3.60
2017-11-03T05:09:49.863Z,3.40
2017-11-03T05:12:18.911Z,3.70
2017-11-03T05:14:47.190Z,3.63
2017-11-03T05:17:15.496Z,4.83
2017-11-03T05:19:43.820Z,4.10
2017-11-03T05:22:12.115Z,4.00
2017-11-03T05:24:40.499Z,3.97
2017-11-03T05:27:08.815Z,3.37
2017-11-03T05:29:37.867Z,3.43
2017-11-03T05:32:06.162Z,3.30
2017-11-03T05:34:34.447Z,3.53
2017-11-03T05:37:02.748Z,3.70
2017-11-03T05:39:31.023Z,3.13
2017-11-03T05:41:59.318Z,3.10
2017-11-03T05:44:27.603Z,4.00
2017-11-03T05:46:55.922Z,4.73
2017-11-03T05:49:24.186Z,4.13
2017-11-03T05:51:52.467Z,3.50
2017-11-03T05:54:20.783Z,3.47
2017-11-03T05:56:49.063Z,4.07
2017-11-03T05:59:17.468Z,4.50
2017-11-03T06:01:45.750Z,4.37
2017-11-03T06:04:14.027Z,4.10
2017-11-03T06:06:42.347Z,3.40
2017-11-03T06:09:10.623Z,4.03
2017-11-03T06:11:38.937Z,4.27
2017-11-03T06:14:08.016Z,3.10
2017-11-03T06:16:36.329Z,2.97
2017-11-03T06:19:05.374Z,4.30
2017-11-03T06:21:33.678Z,4.17
2017-11-03T06:24:02.091Z,3.40
2017-11-03T06:26:30.372Z,3.77
2017-11-03T06:28:58.650Z,4.37
2017-11-03T06:31:26.960Z,4.07
2017-11-03T06:33:55.267Z,4.87
2017-11-03T06:36:24.323Z,4.80
2017-11-03T06:38:52.652Z,5.70
2017-11-03T06:41:20.935Z,4.47
2017-11-03T06:43:49.246Z,5.30
2017-11-03T06:46:17.559Z,5.43
2017-11-03T06:48:45.858Z,6.20
2017-11-03T06:51:14.143Z,5.30
2017-11-03T06:53:42.476Z,6.13
2017-11-03T06:56:10.759Z,4.67
2017-11-03T06:58:39.038Z,6.00
2017-11-03T07:01:07.367Z,5.33
2017-11-03T07:03:36.442Z,6.03
2017-11-03T07:06:04.728Z,6.30
2017-11-03T07:08:33.338Z,5.23
2017-11-03T07:11:02.439Z,5.13
2017-11-03T07:13:30.719Z,5.80
2017-11-03T07:15:59.307Z,6.07
2017-11-03T07:18:27.585Z,6.23
2017-11-03T07:20:55.866Z,5.50
2017-11-03T07:23:24.306Z,5.50
2017-11-03T07:25:52.590Z,6.00
2017-11-03T07:28:20.875Z,4.77
2017-11-03T07:30:49.579Z,5.17
2017-11-03T07:33:17.895Z,4.80
2017-11-03T07:35:46.166Z,6.27
2017-11-03T07:38:14.492Z,4.50
2017-11-03T07:40:42.824Z,5.20
2017-11-03T07:43:11.111Z,5.53
2017-11-03T07:45:39.398Z,3.90
2017-11-03T07:48:07.706Z,5.17
2017-11-03T07:50:36.040Z,4.87
2017-11-03T07:53:05.091Z,4.60
2017-11-03T07:55:33.374Z,4.83
2017-11-03T07:58:01.765Z,4.00
2017-11-03T08:00:30.075Z,4.47
2017-11-03T08:02:58.359Z,3.70
2017-11-03T08:05:26.667Z,3.43
2017-11-03T08:07:55.047Z,4.10
2017-11-03T08:10:23.360Z,5.30
2017-11-03T08:12:52.410Z,4.30
2017-11-03T08:15:20.746Z,4.60
2017-11-03T08:17:49.807Z,3.47
2017-11-03T08:20:18.123Z,3.83
2017-11-03T08:22:46.407Z,3.63
2017-11-03T08:25:14.715Z,2.80
2017-11-03T08:27:42.998Z,2.87
2017-11-03T08:30:11.326Z,3.53
2017-11-03T08:32:39.614Z,3.47
2017-11-03T08:35:07.970Z,3.87
2017-11-03T08:37:36.363Z,4.83
2017-11-03T08:40:04.660Z,3.93
2017-11-03T08:42:33.035Z,3.50
2017-11-03T08:45:01.428Z,4.13
2017-11-03T08:47:29.723Z,3.73
2017-11-03T08:49:58.106Z,3.83
2017-11-03T08:52:26.452Z,4.00
2017-11-03T08:54:54.738Z,3.77
2017-11-03T08:57:23.019Z,3.80
2017-11-03T08:59:51.347Z,4.27
2017-11-03T09:02:19.651Z,3.73
2017-11-03T09:04:47.976Z,3.83
2017-11-03T09:07:17.072Z,4.57
2017-11-03T09:09:45.355Z,5.50
2017-11-03T09:12:13.667Z,3.83
2017-11-03T09:14:42.758Z,3.93
2017-11-03T09:17:11.857Z,3.60
2017-11-03T09:19:40.147Z,3.77
2017-11-03T09:22:08.435Z,3.33
2017-11-03T09:24:36.814Z,4.30
2017-11-03T09:27:05.902Z,2.80
2017-11-03T09:29:34.220Z,4.50
2017-11-03T09:32:02.560Z,3.60
2017-11-03T09:34:30.894Z,4.83
2017-11-03T09:36:59.188Z,3.43
2017-11-03T09:39:28.386Z,5.30
2017-11-03T09:41:56.681Z,4.20
2017-11-03T09:44:24.975Z,3.37
2017-11-03T09:46:53.335Z,4.27
2017-11-03T09:49:21.625Z,4.10
2017-11-03T09:51:49.918Z,3.80
2017-11-03T09:54:18.251Z,3.60
2017-11-03T09:56:47.305Z,4.23
2017-11-03T09:59:15.583Z,3.53
2017-11-03T10:01:44.004Z,4.60
2017-11-03T10:04:12.292Z,4.90
2017-11-03T10:06:40.578Z,5.90
2017-11-03T10:09:08.886Z,4.47
2017-11-03T10:11:37.234Z,4.50
2017-11-03T10:14:05.519Z,4.20
2017-11-03T10:16:33.839Z,4.27
2017-11-03T10:19:02.174Z,4.73
2017-11-03T10:21:31.223Z,3.00
2017-11-03T10:23:59.556Z,3.80
2017-11-03T10:26:27.926Z,2.90
2017-11-03T10:28:56.267Z,3.03
2017-11-03T10:31:24.585Z,2.90
2017-11-03T10:33:52.868Z,3.23
2017-11-03T10:36:21.288Z,2.67
2017-11-03T10:38:49.570Z,3.50
2017-11-03T10:41:17.915Z,3.10
2017-11-03T10:43:46.258Z,2.77
2017-11-03T10:46:14.549Z,2.23
2017-11-03T10:48:42.870Z,5.10
2017-11-03T10:51:11.951Z,2.37
2017-11-03T10:53:40.314Z,4.77
2017-11-03T10:56:08.648Z,1.97
2017-11-03T10:58:37.735Z,2.40
2017-11-03T11:01:06.131Z,2.13
2017-11-03T11:03:35.447Z,2.20
2017-11-03T11:06:04.455Z,3.10
2017-11-03T11:08:32.739Z,2.20
2017-11-03T11:11:01.038Z,1.73
2017-11-03T11:13:29.343Z,2.30
2017-11-03T11:15:58.395Z,1.70
2017-11-03T11:18:26.816Z,2.30
2017-11-03T11:20:55.099Z,1.77
2017-11-03T11:23:24.895Z,3.07
2017-11-03T11:25:53.203Z,1.50
2017-11-03T11:28:21.604Z,1.57
2017-11-03T11:30:49.996Z,1.97
2017-11-03T11:33:18.323Z,2.40
2017-11-03T11:35:47.376Z,1.47
2017-11-03T11:38:15.662Z,1.13
2017-11-03T11:40:44.181Z,1.90
2017-11-03T11:43:12.467Z,2.53
2017-11-03T11:45:40.758Z,2.23
2017-11-03T11:48:09.078Z,2.23
2017-11-03T11:50:38.132Z,1.33
2017-11-03T11:53:06.452Z,2.07
2017-11-03T11:55:34.830Z,1.60
2017-11-03T11:58:03.227Z,2.00
2017-11-03T12:00:31.511Z,1.17
2017-11-03T12:03:00.604Z,2.50
2017-11-03T12:05:28.926Z,2.07
2017-11-03T12:07:58.003Z,1.70
2017-11-03T12:10:26.295Z,1.93
2017-11-03T12:12:54.610Z,1.43
2017-11-03T12:15:24.443Z,1.90
2017-11-03T12:17:53.491Z,1.17
2017-11-03T12:20:21.787Z,1.10
2017-11-03T12:22:50.207Z,1.50
2017-11-03T12:25:20.045Z,2.93
2017-11-03T12:27:48.331Z,1.00
2017-11-03T12:30:16.647Z,1.67
2017-11-03T12:32:45.926Z,1.43
2017-11-03T12:35:14.214Z,1.10
2017-11-03T12:37:42.603Z,1.20
2017-11-03T12:40:10.919Z,1.20
2017-11-03T12:42:39.995Z,1.77
2017-11-03T12:45:08.297Z,1.90
2017-11-03T12:47:36.615Z,1.07
2017-11-03T12:50:05.674Z,1.80
2017-11-03T12:52:33.955Z,3.23
2017-11-03T12:55:02.269Z,1.80
2017-11-03T12:57:30.574Z,2.50
2017-11-03T12:59:59.655Z,1.50
2017-11-03T13:02:27.944Z,2.00
2017-11-03T13:04:56.275Z,1.43
2017-11-03T13:07:25.326Z,1.73
2017-11-03T13:09:53.743Z,2.30
2017-11-03T13:12:22.039Z,3.73
2017-11-03T13:14:50.727Z,2.30
2017-11-03T13:17:19.120Z,1.43
2017-11-03T13:19:47.415Z,2.50
2017-11-03T13:22:15.798Z,1.67
2017-11-03T13:24:44.113Z,1.57
2017-11-03T13:27:13.167Z,2.10
2017-11-03T13:29:41.486Z,1.57
2017-11-03T13:32:09.775Z,1.83
2017-11-03T13:34:38.107Z,1.10
2017-11-03T13:37:06.419Z,1.77
2017-11-03T13:39:34.731Z,1.83
2017-11-03T13:42:03.018Z,2.60
2017-11-03T13:44:31.328Z,2.60
2017-11-03T13:46:59.623Z,2.30
2017-11-03T13:49:28.002Z,1.30
2017-11-03T13:51:56.390Z,1.37
2017-11-03T13:54:26.626Z,1.97
2017-11-03T13:56:54.914Z,1.60
2017-11-03T13:59:23.241Z,1.27
2017-11-03T14:01:52.298Z,2.90
2017-11-03T14:04:20.603Z,1.33
2017-11-03T14:06:48.926Z,1.33
2017-11-03T14:09:18.209Z,1.83
2017-11-03T14:11:46.491Z,1.40
2017-11-03T14:14:14.779Z,2.50
2017-11-03T14:16:43.087Z,1.00
2017-11-03T14:19:11.411Z,1.73
2017-11-03T14:21:39.699Z,2.07
2017-11-03T14:24:08.151Z,1.60
2017-11-03T14:26:36.439Z,2.40
2017-11-03T14:29:04.755Z,2.93
2017-11-03T14:31:33.804Z,2.70
2017-11-03T14:34:02.111Z,2.90
2017-11-03T14:36:30.407Z,2.50
2017-11-03T14:38:58.910Z,1.40
2017-11-03T14:41:27.190Z,2.13
2017-11-03T14:43:55.481Z,2.10
2017-11-03T14:46:23.787Z,2.00
2017-11-03T14:48:52.072Z,2.60
2017-11-03T14:51:20.394Z,1.70
2017-11-03T14:53:48.676Z,1.73
2017-11-03T14:56:17.027Z,2.30
2017-11-03T14:58:45.340Z,3.67
2017-11-03T15:01:14.415Z,2.37
2017-11-03T15:03:42.715Z,2.10
2017-11-03T15:06:11.028Z,3.17
2017-11-03T15:08:40.106Z,2.10
2017-11-03T15:11:08.431Z,2.10
2017-11-03T15:13:37.538Z,2.30
2017-11-03T15:16:06.587Z,2.23
2017-11-03T15:18:34.874Z,2.80
2017-11-03T15:21:03.212Z,2.97
2017-11-03T15:23:31.511Z,2.50
2017-11-03T15:26:00.560Z,2.80
2017-11-03T15:28:28.891Z,5.30
2017-11-03T15:30:57.175Z,4.30
2017-11-03T15:33:25.459Z,5.93
2017-11-03T15:35:55.280Z,6.30
2017-11-03T15:38:23.554Z,4.67
2017-11-03T15:40:52.212Z,5.93
2017-11-03T15:43:20.499Z,4.63
2017-11-03T15:45:49.544Z,6.37
2017-11-03T15:48:17.864Z,5.40
2017-11-03T15:50:46.147Z,5.50
2017-11-03T15:53:14.471Z,5.33
2017-11-03T15:55:43.530Z,5.90
2017-11-03T15:58:11.811Z,5.17
2017-11-03T16:00:40.125Z,5.13
2017-11-03T16:03:09.943Z,5.33
2017-11-03T16:05:38.339Z,10.03
2017-11-03T16:08:06.633Z,18.40
2017-11-03T16:10:34.914Z,30.43
2017-11-03T16:13:03.312Z,28.43
2017-11-03T16:15:31.618Z,27.07
2017-11-03T16:17:59.971Z,18.97
2017-11-03T16:20:28.255Z,15.87
2017-11-03T16:22:56.576Z,13.17
2017-11-03T16:25:24.890Z,12.23
2017-11-03T16:27:53.227Z,10.80
2017-11-03T16:30:21.512Z,9.70
2017-11-03T16:32:49.822Z,8.07
2017-11-03T16:35:18.106Z,7.33
2017-11-03T16:37:46.411Z,7.47
2017-11-03T16:40:14.800Z,6.60
2017-11-03T16:42:43.083Z,5.43
2017-11-03T16:45:11.466Z,5.03
2017-11-03T16:47:39.859Z,4.70
2017-11-03T16:50:08.143Z,5.03
2017-11-03T16:52:36.428Z,4.27
2017-11-03T16:55:04.748Z,5.80
2017-11-03T16:57:33.119Z,4.13
2017-11-03T17:00:01.507Z,5.27
2017-11-03T17:02:29.843Z,4.27
2017-11-03T17:04:58.122Z,4.23
2017-11-03T17:07:27.167Z,4.43
2017-11-03T17:09:55.503Z,3.97
2017-11-03T17:12:23.783Z,5.03
2017-11-03T17:14:52.067Z,5.47
2017-11-03T17:17:20.378Z,4.33
2017-11-03T17:19:49.427Z,4.37
2017-11-03T17:22:17.742Z,4.17
2017-11-03T17:24:46.047Z,5.00
2017-11-03T17:27:14.328Z,5.10
2017-11-03T17:29:42.643Z,5.13
2017-11-03T17:32:11.695Z,4.73
2017-11-03T17:34:40.022Z,5.03
2017-11-03T17:37:08.305Z,4.03
2017-11-03T17:39:36.590Z,3.73
2017-11-03T17:42:04.924Z,4.90
2017-11-03T17:44:33.208Z,3.83
2017-11-03T17:47:02.315Z,5.53
2017-11-03T17:49:31.355Z,3.90
2017-11-03T17:51:59.704Z,3.90
2017-11-03T17:54:29.155Z,3.80
2017-11-03T17:56:57.434Z,4.07
2017-11-03T17:59:25.842Z,4.10
2017-11-03T18:01:54.123Z,4.00
2017-11-03T18:04:22.467Z,3.90
2017-11-03T18:06:50.754Z,4.20
2017-11-03T18:09:19.139Z,3.73
2017-11-03T18:11:47.416Z,3.20
2017-11-03T18:14:15.810Z,3.27
2017-11-03T18:16:44.091Z,4.90
2017-11-03T18:19:12.493Z,4.37
2017-11-03T18:21:40.778Z,3.97
2017-11-03T18:24:09.054Z,3.60
2017-11-03T18:26:37.363Z,4.20
2017-11-03T18:29:05.854Z,4.67
2017-11-03T18:31:34.247Z,6.23
2017-11-03T18:34:02.532Z,3.80
2017-11-03T18:36:30.923Z,3.53
2017-11-03T18:38:59.205Z,4.70
2017-11-03T18:41:27.494Z,3.50
2017-11-03T18:43:55.823Z,4.27
2017-11-03T18:46:24.902Z,4.97
2017-11-03T18:48:53.983Z,4.00
2017-11-03T18:51:22.266Z,5.97
2017-11-03T18:53:50.582Z,4.80
2017-11-03T18:56:18.968Z,5.27
2017-11-03T18:58:47.234Z,4.17
2017-11-03T19:01:15.758Z,5.13
2017-11-03T19:03:44.039Z,4.43
2017-11-03T19:06:12.329Z,5.80
2017-11-03T19:08:40.643Z,6.47
2017-11-03T19:11:08.919Z,6.50
2017-11-03T19:13:37.235Z,6.27
2017-11-03T19:16:06.288Z,6.43
2017-11-03T19:18:34.603Z,6.30
2017-11-03T19:21:02.914Z,7.67
2017-11-03T19:23:31.971Z,7.47
2017-11-03T19:26:00.276Z,7.27
2017-11-03T19:28:28.579Z,5.83
2017-11-03T19:30:56.860Z,7.33
2017-11-03T19:33:25.180Z,6.50
2017-11-03T19:35:54.223Z,6.30
2017-11-03T19:38:22.527Z,5.93
2017-11-03T19:40:50.812Z,6.13
2017-11-03T19:43:19.132Z,7.10
2017-11-03T19:45:47.411Z,5.27
2017-11-03T19:48:15.796Z,5.87
2017-11-03T19:50:44.071Z,5.73
2017-11-03T19:53:12.584Z,6.90
2017-11-03T19:55:40.859Z,6.10
2017-11-03T19:58:10.340Z,6.00
2017-11-03T20:00:38.650Z,6.97
2017-11-03T20:03:06.958Z,6.57
2017-11-03T20:05:35.238Z,6.20
2017-11-03T20:08:03.632Z,6.80
2017-11-03T20:10:31.925Z,6.57
2017-11-03T20:13:00.236Z,6.80
2017-11-03T20:15:28.929Z,5.47
2017-11-03T20:17:57.289Z,6.17
2017-11-03T20:20:26.119Z,6.30
2017-11-03T20:22:54.403Z,6.13
2017-11-03T20:25:22.718Z,7.30
2017-11-03T20:27:51.006Z,6.60
2017-11-03T20:30:19.344Z,8.10
2017-11-03T20:32:47.670Z,8.70
2017-11-03T20:35:16.930Z,7.40
2017-11-03T20:37:45.215Z,7.77
2017-11-03T20:40:14.291Z,6.87
2017-11-03T20:42:42.571Z,7.57
2017-11-03T20:45:10.911Z,6.50
2017-11-03T20:47:39.212Z,7.20
2017-11-03T20:50:07.567Z,9.47
2017-11-03T20:52:36.950Z,8.43
2017-11-03T20:55:05.266Z,9.60
2017-11-03T20:57:33.639Z,10.53
2017-11-03T21:00:01.933Z,10.70
2017-11-03T21:02:30.259Z,10.30
2017-11-03T21:04:58.707Z,10.47
2017-11-03T21:07:27.052Z,8.07
2017-11-03T21:09:55.575Z,8.73
2017-11-03T21:12:23.888Z,9.97
2017-11-03T21:14:52.170Z,8.83
2017-11-03T21:17:20.477Z,8.63
2017-11-03T21:19:50.277Z,9.67
2017-11-03T21:22:18.598Z,7.93
2017-11-03T21:24:47.719Z,9.70
2017-11-03T21:27:16.766Z,8.70
2017-11-03T21:29:45.051Z,9.30
2017-11-03T21:32:13.406Z,9.40
2017-11-03T21:34:42.469Z,9.20
2017-11-03T21:37:10.750Z,9.30
2017-11-03T21:39:39.259Z,8.73
2017-11-03T21:42:07.548Z,8.67
2017-11-03T21:44:35.830Z,8.73
2017-11-03T21:47:04.144Z,9.60
2017-11-03T21:49:32.722Z,9.40
2017-11-03T21:52:01.131Z,10.90
2017-11-03T21:54:29.410Z,8.67
2017-11-03T21:56:58.494Z,9.50
2017-11-03T21:59:26.807Z,10.63
2017-11-03T22:01:55.115Z,9.43
2017-11-03T22:04:24.198Z,9.87
2017-11-03T22:06:52.478Z,10.50
2017-11-03T22:09:20.807Z,9.87
2017-11-03T22:11:49.874Z,11.00
2017-11-03T22:14:18.164Z,9.60
2017-11-03T22:16:46.478Z,11.50
2017-11-03T22:19:14.871Z,10.63
2017-11-03T22:21:43.164Z,10.60
2017-11-03T22:24:12.287Z,10.33
2017-11-03T22:26:41.338Z,10.40
2017-11-03T22:29:09.631Z,13.77
2017-11-03T22:31:37.976Z,11.07
2017-11-03T22:34:07.034Z,9.37
2017-11-03T22:36:35.342Z,10.67
2017-11-03T22:39:03.646Z,8.83
2017-11-03T22:41:32.695Z,9.17
2017-11-03T22:44:01.015Z,9.20
2017-11-03T22:46:29.295Z,8.43
2017-11-03T22:48:57.578Z,8.60
2017-11-03T22:51:25.891Z,9.50
2017-11-03T22:53:54.175Z,9.43
2017-11-03T22:56:22.667Z,8.63
2017-11-03T22:58:50.959Z,9.93
2017-11-03T23:01:19.243Z,10.43
2017-11-03T23:03:47.646Z,9.00
2017-11-03T23:06:15.959Z,8.93
2017-11-03T23:08:45.012Z,10.17
2017-11-03T23:11:13.335Z,9.87
2017-11-03T23:13:41.619Z,8.60
2017-11-03T23:16:09.899Z,9.63
2017-11-03T23:18:38.219Z,9.57
2017-11-03T23:21:07.270Z,8.90
2017-11-03T23:23:35.546Z,8.87
2017-11-03T23:26:03.884Z,8.33
2017-11-03T23:28:32.166Z,9.10
2017-11-03T23:31:00.491Z,9.77
2017-11-03T23:33:29.536Z,9.83
2017-11-03T23:35:57.818Z,9.00
2017-11-03T23:38:26.128Z,9.83
2017-11-03T23:40:54.419Z,10.83
2017-11-03T23:43:22.754Z,9.63
2017-11-03T23:45:51.804Z,9.53
2017-11-03T23:48:20.086Z,9.20
2017-11-03T23:50:48.391Z,9.40
2017-11-03T23:53:16.678Z,9.20
2017-11-03T23:55:45.096Z,9.00
2017-11-03T23:58:13.484Z,11.87
